Flugplatz Hamburg-Finkenwerder

Bericht für EDHI

vom 14.12. um 00:20 UTC

Wind 5 kt aus 190°

Sichtweite 5000 m

gering bewölkt in 600 ft

bedeckt in 1900 ft

Temperatur 2.0°C

Taupunkt 1.0°C

Luftfeuchtigkeit 93%

Luftdruck 982 hPa

EDHI 140020Z AUTO 19005KT 160V270 5000 // FEW006/// OVC019/// 02/01 Q0982
Keine Prognose (TAF) verfügbar.
Impressum